Multratug 19 — PCHZ — position and weather

sailwx.info

Track history (hours):
 
Tides and Currents Weather Stations Pressure Air Temp Water Temp Dewpoint Dewpoint Depression Visibility Wind Speed Wind Dir Waves Ship Positions

Multratug 19

Last reported at 2014-Dec-07 23:18 UTC. Time now 2014-Dec-23 02:16 UTC.
Position N 50°32' E 000°02'.
Warning: this ship's position is 15 days out of date.

Length 32 m; draft 5.4 m.

Type: Tug. MMSI: 245875000.

Date/timePositionNaut miles runAvg speedWind from/ knotsBaromVisibWave heightAir tempDewpointWater temp
2014-Dec-07 23:18N 50°32' E 000°02'14 8.2
2014-Dec-07 21:32N 50°36' E 000°23'8 7.9
2014-Dec-07 20:33N 50°39' E 000°35'10 9.3
2014-Dec-07 19:32N 50°44' E 000°48'1511.4
2014-Dec-07 18:14N 50°53' E 001°06'812.1
2014-Dec-07 17:33N 50°58' E 001°16'1111.4
2014-Dec-07 16:33N 51°05' E 001°30'9 9.4
2014-Dec-07 15:33N 51°11' E 001°42'8 8.2
2014-Dec-07 14:34N 51°17' E 001°51'7 7.3
2014-Dec-07 13:33N 51°23' E 001°57'7 6.9
2014-Dec-07 12:33N 51°23' E 002°08'8 8.1
2014-Dec-07 11:33N 51°21' E 002°21'8 8.2
2014-Dec-07 10:33N 51°23' E 002°34'9 9.1
2014-Dec-07 09:33N 51°22' E 002°48'20 9.9
2014-Dec-07 07:33N 51°25' E 003°20'1111.2
2014-Dec-07 06:33N 51°26' E 003°37'4 3.6
2014-Dec-07 05:33N 51°27' E 003°43'0 0.0
2014-Dec-07 04:33N 51°27' E 003°43'0 0.0
2014-Dec-07 03:33N 51°27' E 003°43'0 0.0
2014-Dec-07 02:33N 51°27' E 003°43'0 0.0
2014-Dec-07 01:33N 51°27' E 003°43'0 0.0
2014-Dec-07 00:33N 51°27' E 003°43'0 0.0
2014-Dec-06 23:34N 51°27' E 003°43'0 0.0
2014-Dec-06 22:33N 51°27' E 003°43'0 0.0
2014-Dec-06 21:33N 51°27' E 003°43'0 0.0
2014-Dec-06 20:33N 51°27' E 003°43'0 0.0
2014-Dec-06 19:33N 51°27' E 003°43'0 0.0
2014-Dec-06 18:33N 51°27' E 003°43'0 0.0
2014-Dec-06 17:33N 51°27' E 003°43'0 0.0
2014-Dec-06 16:33N 51°27' E 003°43'0 0.0
2014-Dec-06 15:33N 51°27' E 003°43'0 0.0
2014-Dec-06 14:33N 51°27' E 003°43'0 0.0
2014-Dec-06 13:33N 51°27' E 003°43'0 0.0
2014-Dec-06 12:33N 51°27' E 003°43'0 0.0
2014-Dec-06 11:33N 51°27' E 003°43'0 0.0
2014-Dec-06 10:33N 51°27' E 003°43'0 0.0
2014-Dec-06 09:33N 51°27' E 003°43'0 0.0
2014-Dec-06 08:33N 51°27' E 003°43'0 0.0
2014-Dec-06 07:33N 51°27' E 003°43'0 0.0
2014-Dec-06 06:33N 51°27' E 003°43'0 0.0
2014-Dec-06 05:33N 51°27' E 003°43'0 0.0
2014-Dec-06 04:33N 51°27' E 003°43'2 1.5
2014-Dec-06 03:33N 51°26' E 003°41'9 9.3
2014-Dec-06 02:33N 51°22' E 003°54'7 7.1
2014-Dec-06 01:33N 51°27' E 004°01'0 0.3
2014-Dec-06 00:31N 51°28' E 004°00'0 0.0
2014-Dec-05 23:31N 51°28' E 004°00'0 0.0
2014-Dec-05 22:31N 51°28' E 004°00'0 0.0
2014-Dec-05 21:31N 51°28' E 004°00'0 0.0
2014-Dec-05 20:31N 51°28' E 004°00'0 0.0
2014-Dec-05 19:31N 51°28' E 004°00'0 0.0
2014-Dec-05 18:31N 51°28' E 004°00'0 0.0
2014-Dec-05 17:31N 51°28' E 004°00'0 0.0
2014-Dec-05 16:31N 51°28' E 004°00'0 0.0
2014-Dec-05 15:31N 51°28' E 004°00'0 0.0
2014-Dec-05 14:31N 51°28' E 004°00'0 0.0
2014-Dec-05 13:31N 51°28' E 004°00'0 0.0
2014-Dec-05 12:31N 51°28' E 004°00'0 0.0
2014-Dec-05 11:31N 51°28' E 004°00'0 0.0
2014-Dec-05 10:31N 51°28' E 004°00'0 0.0
2014-Dec-05 09:31N 51°28' E 004°00'0 0.0
2014-Dec-05 08:31N 51°28' E 004°00'0 0.0
2014-Dec-05 07:28N 51°28' E 004°00'0 0.0
2014-Dec-05 06:28N 51°28' E 004°00'0 0.0
2014-Dec-05 05:31N 51°28' E 004°00'0 0.0
2014-Dec-05 04:31N 51°28' E 004°00'0 0.0
2014-Dec-05 03:31N 51°28' E 004°00'0 0.0
2014-Dec-05 02:31N 51°28' E 004°00'0 0.0
2014-Dec-05 01:31N 51°28' E 004°00'0 0.0
2014-Dec-05 00:31N 51°28' E 004°00'0 0.0
2014-Dec-04 23:31N 51°28' E 004°00'0 0.0
2014-Dec-04 22:31N 51°28' E 004°00'0 0.0
2014-Dec-04 21:31N 51°28' E 004°00'0 0.0
2014-Dec-04 20:31N 51°28' E 004°00'0 0.0
2014-Dec-04 19:31N 51°28' E 004°00'0 0.0
2014-Dec-04 18:31N 51°28' E 004°00'0 0.0
2014-Dec-04 17:31N 51°28' E 004°00'0 0.0
2014-Dec-04 16:31N 51°28' E 004°00'0 0.0
2014-Dec-04 15:31N 51°28' E 004°00'0 0.0
2014-Dec-04 14:31N 51°28' E 004°00'0 0.0
2014-Dec-04 13:31N 51°28' E 004°00'0 0.0
2014-Dec-04 12:31N 51°28' E 004°00'0 0.0
2014-Dec-04 11:31N 51°28' E 004°00'0 0.0
2014-Dec-04 10:31N 51°28' E 004°00'0 0.0
2014-Dec-04 09:31N 51°28' E 004°00'0 0.0
2014-Dec-04 08:31N 51°28' E 004°00'0 0.0
2014-Dec-04 07:31N 51°28' E 004°00'0 0.0
2014-Dec-04 06:31N 51°28' E 004°00'0 0.0
2014-Dec-04 05:31N 51°28' E 004°00'0 0.0
2014-Dec-04 04:31N 51°28' E 004°00'0 0.0
2014-Dec-04 03:31N 51°28' E 004°00'0 0.0
2014-Dec-04 02:31N 51°28' E 004°00'0 0.0
2014-Dec-04 01:31N 51°28' E 004°00'0 0.0
2014-Dec-04 00:31N 51°28' E 004°00'0 0.0
2014-Dec-03 23:31N 51°28' E 004°00'0 0.0
2014-Dec-03 22:31N 51°28' E 004°00'0 0.0
2014-Dec-03 21:31N 51°28' E 004°00'0 0.0
2014-Dec-03 20:31N 51°28' E 004°00'0 0.0
2014-Dec-03 19:31N 51°28' E 004°00'0 0.0
2014-Dec-03 18:31N 51°28' E 004°00'0 0.0
2014-Dec-03 17:31N 51°28' E 004°00'0 0.0
2014-Dec-03 16:31N 51°28' E 004°00'0 0.0
2014-Dec-03 15:28N 51°28' E 004°00'0 0.0
2014-Dec-03 14:31N 51°28' E 004°00'0 0.0
2014-Dec-03 13:31N 51°28' E 004°00'0 0.0
2014-Dec-03 12:31N 51°28' E 004°00'0 0.0
2014-Dec-03 11:31N 51°28' E 004°00'0 0.0
2014-Dec-03 10:31N 51°28' E 004°00'0 0.0
2014-Dec-03 09:31N 51°28' E 004°00'0 0.0
2014-Dec-03 08:31N 51°28' E 004°00'0 0.0
2014-Dec-03 07:31N 51°28' E 004°00'0 0.0
2014-Dec-03 06:31N 51°28' E 004°00'0 0.0
2014-Dec-03 05:31N 51°28' E 004°00'0 0.0
2014-Dec-03 04:31N 51°28' E 004°00'0 0.0
2014-Dec-03 03:31N 51°28' E 004°00'0 0.0
2014-Dec-03 02:31N 51°28' E 004°00'0 0.0
2014-Dec-03 01:31N 51°28' E 004°00'0 0.0
2014-Dec-03 00:31N 51°28' E 004°00'0 0.0
2014-Dec-02 23:31N 51°28' E 004°00'0 0.0
2014-Dec-02 22:31N 51°28' E 004°00'0 0.0
2014-Dec-02 21:31N 51°28' E 004°00'0 0.0
2014-Dec-02 20:31N 51°28' E 004°00'0 0.0
2014-Dec-02 19:31N 51°28' E 004°00'0 0.0
2014-Dec-02 18:31N 51°28' E 004°00'0 0.0
2014-Dec-02 17:31N 51°28' E 004°00'0 0.0
2014-Dec-02 16:31N 51°28' E 004°00'0 0.0
2014-Dec-02 15:31N 51°28' E 004°00'0 0.0
2014-Dec-02 14:31N 51°28' E 004°00'0 0.0
2014-Dec-02 13:31N 51°28' E 004°00'0 0.0
2014-Dec-02 12:31N 51°28' E 004°00'0 0.0
2014-Dec-02 11:34N 51°28' E 004°00'0 0.0
2014-Dec-02 10:31N 51°28' E 004°00'0 0.0
2014-Dec-02 09:31N 51°28' E 004°00'0 0.0
2014-Dec-02 08:34N 51°28' E 004°00'0 0.0
2014-Dec-02 07:28N 51°28' E 004°00'0 0.0
2014-Dec-02 06:31N 51°28' E 004°00'0 0.0
2014-Dec-02 05:31N 51°28' E 004°00'0 0.0
2014-Dec-02 04:34N 51°28' E 004°00'0 0.0
2014-Dec-02 03:31N 51°28' E 004°00'0 0.0
2014-Dec-02 02:34N 51°28' E 004°00'0 0.0
2014-Dec-02 01:31N 51°28' E 004°00'0 0.0
2014-Dec-02 00:33N 51°28' E 004°00'0 0.0
2014-Dec-01 23:31N 51°28' E 004°00'0 0.0
2014-Dec-01 22:34N 51°28' E 004°00'0 0.0
2014-Dec-01 21:31N 51°28' E 004°00'0 0.0
2014-Dec-01 20:30N 51°28' E 004°00'0 0.0
2014-Dec-01 19:34N 51°28' E 004°00'0 0.0
2014-Dec-01 18:30N 51°28' E 004°00'0 0.0
2014-Dec-01 17:34N 51°28' E 004°00'0 0.0
2014-Dec-01 16:31N 51°28' E 004°00'0 0.0
2014-Dec-01 15:34N 51°28' E 004°00'0 0.0
2014-Dec-01 14:33N 51°28' E 004°00'0 0.0
2014-Dec-01 13:33N 51°28' E 004°00'0 0.0
2014-Dec-01 12:31N 51°28' E 004°00'0 0.0
2014-Dec-01 11:33N 51°28' E 004°00'0 0.0
2014-Dec-01 10:33N 51°28' E 004°00'0 0.0
2014-Dec-01 09:33N 51°28' E 004°00'0 0.0
2014-Dec-01 08:33N 51°28' E 004°00'0 0.0
2014-Dec-01 07:33N 51°28' E 004°00'0 0.2
2014-Dec-01 06:33N 51°27' E 004°01'8 7.6
2014-Dec-01 05:33N 51°21' E 003°53'3 3.0
2014-Dec-01 04:34N 51°20' E 003°49'0 0.0
2014-Dec-01 03:33N 51°20' E 003°49'0 0.0
2014-Dec-01 02:33N 51°20' E 003°49'0 0.0
2014-Dec-01 01:33N 51°20' E 003°49'0 0.0
2014-Dec-01 00:33N 51°20' E 003°49'0 0.0
2014-Nov-30 23:33N 51°20' E 003°49'0 0.0
2014-Nov-30 22:34N 51°20' E 003°49'0 0.0
2014-Nov-30 21:34N 51°20' E 003°49'0 0.0
2014-Nov-30 20:33N 51°20' E 003°49'0 0.0
2014-Nov-30 19:34N 51°20' E 003°49'0 0.0
2014-Nov-30 18:34N 51°20' E 003°49'0 0.0
2014-Nov-30 17:33N 51°20' E 003°49'0 0.0
2014-Nov-30 16:34N 51°20' E 003°49'0 0.0
2014-Nov-30 15:34N 51°20' E 003°49'0 0.0
2014-Nov-30 14:33N 51°20' E 003°49'0 0.0
2014-Nov-30 13:33N 51°20' E 003°49'0 0.0
2014-Nov-30 12:33N 51°20' E 003°49'0 0.0
2014-Nov-30 11:34N 51°20' E 003°49'0 0.0
2014-Nov-30 10:33N 51°20' E 003°49'0 0.0
2014-Nov-30 09:34N 51°20' E 003°49'0 0.0
2014-Nov-30 08:33N 51°20' E 003°49'0 0.0
2014-Nov-30 07:33N 51°20' E 003°49'0 0.0
2014-Nov-30 06:34N 51°20' E 003°49'0 0.0
2014-Nov-30 05:34N 51°20' E 003°49'0 0.0
2014-Nov-30 04:33N 51°20' E 003°49'0 0.0
2014-Nov-30 03:33N 51°20' E 003°49'0 0.0
2014-Nov-30 02:34N 51°20' E 003°49'0 0.0
2014-Nov-30 01:33N 51°20' E 003°49'0 0.0
2014-Nov-30 00:34N 51°20' E 003°49'0 0.0
2014-Nov-29 23:34N 51°20' E 003°49'0 0.0
2014-Nov-29 22:34N 51°20' E 003°49'0 0.0
2014-Nov-29 21:34N 51°20' E 003°49'0 0.0
2014-Nov-29 20:33N 51°20' E 003°49'0 0.0
2014-Nov-29 19:34N 51°20' E 003°49'0 0.0
2014-Nov-29 18:33N 51°20' E 003°49'0 0.0
2014-Nov-29 17:34N 51°20' E 003°49'0 0.0
2014-Nov-29 16:33N 51°20' E 003°49'0 0.0
2014-Nov-29 15:34N 51°20' E 003°49'0 0.0
2014-Nov-29 14:34N 51°20' E 003°49'0 0.0
2014-Nov-29 13:33N 51°20' E 003°49'0 0.0
2014-Nov-29 12:33N 51°20' E 003°49'0 0.0
2014-Nov-29 11:34N 51°20' E 003°49'0 0.0
2014-Nov-29 10:33N 51°20' E 003°49'0 0.0
2014-Nov-29 09:34N 51°20' E 003°49'0 0.0
2014-Nov-29 08:33N 51°20' E 003°49'0 0.0
2014-Nov-29 07:34N 51°20' E 003°49'0 0.0
2014-Nov-29 06:33N 51°20' E 003°49'0 0.0
2014-Nov-29 05:33N 51°20' E 003°49'0 0.0
2014-Nov-29 04:34N 51°20' E 003°49'0 0.0
2014-Nov-29 03:34N 51°20' E 003°49'0 0.0
2014-Nov-29 02:33N 51°20' E 003°49'0 0.0
2014-Nov-29 01:34N 51°20' E 003°49'0 0.0
2014-Nov-29 00:34N 51°20' E 003°49'0 0.0
2014-Nov-28 23:33N 51°20' E 003°49'0 0.0
2014-Nov-28 22:33N 51°20' E 003°49'2 1.6
2014-Nov-28 21:33N 51°21' E 003°47'1 1.2
2014-Nov-28 20:33N 51°22' E 003°45'1 1.0
2014-Nov-28 19:34N 51°21' E 003°46'2 1.9
2014-Nov-28 18:34N 51°20' E 003°49'0 0.0
2014-Nov-28 17:33N 51°20' E 003°49'0 0.0
2014-Nov-28 16:33N 51°20' E 003°49'0 0.0
2014-Nov-28 15:34N 51°20' E 003°49'0 0.0
2014-Nov-28 14:33N 51°20' E 003°49'0 0.0
2014-Nov-28 13:33N 51°20' E 003°49'1 0.6
2014-Nov-28 12:33N 51°20' E 003°49'3 3.1
2014-Nov-28 11:33N 51°17' E 003°50'5 5.3
2014-Nov-28 10:33N 51°12' E 003°48'6 6.1
2014-Nov-28 09:33N 51°06' E 003°45'0 0.4
2014-Nov-28 08:33N 51°05' E 003°45'0 0.1
2014-Nov-28 07:33N 51°06' E 003°45'0 0.0
2014-Nov-28 06:33N 51°06' E 003°45'0 0.0
2014-Nov-28 05:33N 51°06' E 003°45'0 0.0
2014-Nov-28 04:33N 51°06' E 003°45'0 0.0
2014-Nov-28 03:33N 51°06' E 003°45'0 0.0
2014-Nov-28 02:33N 51°06' E 003°45'0 0.0
2014-Nov-28 01:33N 51°06' E 003°45'0 0.0
2014-Nov-28 00:33N 51°06' E 003°45'0 0.0
2014-Nov-27 23:33N 51°06' E 003°45'  
Track history (hours):
 
Tides and Currents Weather Stations Pressure Air Temp Water Temp Dewpoint Dewpoint Depression Visibility Wind Speed Wind Dir Waves Ship Positions

Multratug 19

Last reported at 2014-Dec-07 23:18 UTC. Time now 2014-Dec-23 02:16 UTC.
Position N 50°32' E 000°02'.
Warning: this ship's position is 15 days out of date.

Length 32 m; draft 5.4 m.

Type: Tug. MMSI: 245875000.

Date/timePositionNaut miles runAvg speedWind from/ knotsBaromVisibWave heightAir tempDewpointWater temp
2014-Dec-07 23:18N 50°32' E 000°02'14 8.2
2014-Dec-07 21:32N 50°36' E 000°23'8 7.9
2014-Dec-07 20:33N 50°39' E 000°35'10 9.3
2014-Dec-07 19:32N 50°44' E 000°48'1511.4
2014-Dec-07 18:14N 50°53' E 001°06'812.1
2014-Dec-07 17:33N 50°58' E 001°16'1111.4
2014-Dec-07 16:33N 51°05' E 001°30'9 9.4
2014-Dec-07 15:33N 51°11' E 001°42'8 8.2
2014-Dec-07 14:34N 51°17' E 001°51'7 7.3
2014-Dec-07 13:33N 51°23' E 001°57'7 6.9
2014-Dec-07 12:33N 51°23' E 002°08'8 8.1
2014-Dec-07 11:33N 51°21' E 002°21'8 8.2
2014-Dec-07 10:33N 51°23' E 002°34'9 9.1
2014-Dec-07 09:33N 51°22' E 002°48'20 9.9
2014-Dec-07 07:33N 51°25' E 003°20'1111.2
2014-Dec-07 06:33N 51°26' E 003°37'4 3.6
2014-Dec-07 05:33N 51°27' E 003°43'0 0.0
2014-Dec-07 04:33N 51°27' E 003°43'0 0.0
2014-Dec-07 03:33N 51°27' E 003°43'0 0.0
2014-Dec-07 02:33N 51°27' E 003°43'0 0.0
2014-Dec-07 01:33N 51°27' E 003°43'0 0.0
2014-Dec-07 00:33N 51°27' E 003°43'0 0.0
2014-Dec-06 23:34N 51°27' E 003°43'0 0.0
2014-Dec-06 22:33N 51°27' E 003°43'0 0.0
2014-Dec-06 21:33N 51°27' E 003°43'0 0.0
2014-Dec-06 20:33N 51°27' E 003°43'0 0.0
2014-Dec-06 19:33N 51°27' E 003°43'0 0.0
2014-Dec-06 18:33N 51°27' E 003°43'0 0.0
2014-Dec-06 17:33N 51°27' E 003°43'0 0.0
2014-Dec-06 16:33N 51°27' E 003°43'0 0.0
2014-Dec-06 15:33N 51°27' E 003°43'0 0.0
2014-Dec-06 14:33N 51°27' E 003°43'0 0.0
2014-Dec-06 13:33N 51°27' E 003°43'0 0.0
2014-Dec-06 12:33N 51°27' E 003°43'0 0.0
2014-Dec-06 11:33N 51°27' E 003°43'0 0.0
2014-Dec-06 10:33N 51°27' E 003°43'0 0.0
2014-Dec-06 09:33N 51°27' E 003°43'0 0.0
2014-Dec-06 08:33N 51°27' E 003°43'0 0.0
2014-Dec-06 07:33N 51°27' E 003°43'0 0.0
2014-Dec-06 06:33N 51°27' E 003°43'0 0.0
2014-Dec-06 05:33N 51°27' E 003°43'0 0.0
2014-Dec-06 04:33N 51°27' E 003°43'2 1.5
2014-Dec-06 03:33N 51°26' E 003°41'9 9.3
2014-Dec-06 02:33N 51°22' E 003°54'7 7.1
2014-Dec-06 01:33N 51°27' E 004°01'0 0.3
2014-Dec-06 00:31N 51°28' E 004°00'0 0.0
2014-Dec-05 23:31N 51°28' E 004°00'0 0.0
2014-Dec-05 22:31N 51°28' E 004°00'0 0.0
2014-Dec-05 21:31N 51°28' E 004°00'0 0.0
2014-Dec-05 20:31N 51°28' E 004°00'0 0.0
2014-Dec-05 19:31N 51°28' E 004°00'0 0.0
2014-Dec-05 18:31N 51°28' E 004°00'0 0.0
2014-Dec-05 17:31N 51°28' E 004°00'0 0.0
2014-Dec-05 16:31N 51°28' E 004°00'0 0.0
2014-Dec-05 15:31N 51°28' E 004°00'0 0.0
2014-Dec-05 14:31N 51°28' E 004°00'0 0.0
2014-Dec-05 13:31N 51°28' E 004°00'0 0.0
2014-Dec-05 12:31N 51°28' E 004°00'0 0.0
2014-Dec-05 11:31N 51°28' E 004°00'0 0.0
2014-Dec-05 10:31N 51°28' E 004°00'0 0.0
2014-Dec-05 09:31N 51°28' E 004°00'0 0.0
2014-Dec-05 08:31N 51°28' E 004°00'0 0.0
2014-Dec-05 07:28N 51°28' E 004°00'0 0.0
2014-Dec-05 06:28N 51°28' E 004°00'0 0.0
2014-Dec-05 05:31N 51°28' E 004°00'0 0.0
2014-Dec-05 04:31N 51°28' E 004°00'0 0.0
2014-Dec-05 03:31N 51°28' E 004°00'0 0.0
2014-Dec-05 02:31N 51°28' E 004°00'0 0.0
2014-Dec-05 01:31N 51°28' E 004°00'0 0.0
2014-Dec-05 00:31N 51°28' E 004°00'0 0.0
2014-Dec-04 23:31N 51°28' E 004°00'0 0.0
2014-Dec-04 22:31N 51°28' E 004°00'0 0.0
2014-Dec-04 21:31N 51°28' E 004°00'0 0.0
2014-Dec-04 20:31N 51°28' E 004°00'0 0.0
2014-Dec-04 19:31N 51°28' E 004°00'0 0.0
2014-Dec-04 18:31N 51°28' E 004°00'0 0.0
2014-Dec-04 17:31N 51°28' E 004°00'0 0.0
2014-Dec-04 16:31N 51°28' E 004°00'0 0.0
2014-Dec-04 15:31N 51°28' E 004°00'0 0.0
2014-Dec-04 14:31N 51°28' E 004°00'0 0.0
2014-Dec-04 13:31N 51°28' E 004°00'0 0.0
2014-Dec-04 12:31N 51°28' E 004°00'0 0.0
2014-Dec-04 11:31N 51°28' E 004°00'0 0.0
2014-Dec-04 10:31N 51°28' E 004°00'0 0.0
2014-Dec-04 09:31N 51°28' E 004°00'0 0.0
2014-Dec-04 08:31N 51°28' E 004°00'0 0.0
2014-Dec-04 07:31N 51°28' E 004°00'0 0.0
2014-Dec-04 06:31N 51°28' E 004°00'0 0.0
2014-Dec-04 05:31N 51°28' E 004°00'0 0.0
2014-Dec-04 04:31N 51°28' E 004°00'0 0.0
2014-Dec-04 03:31N 51°28' E 004°00'0 0.0
2014-Dec-04 02:31N 51°28' E 004°00'0 0.0
2014-Dec-04 01:31N 51°28' E 004°00'0 0.0
2014-Dec-04 00:31N 51°28' E 004°00'0 0.0
2014-Dec-03 23:31N 51°28' E 004°00'0 0.0
2014-Dec-03 22:31N 51°28' E 004°00'0 0.0
2014-Dec-03 21:31N 51°28' E 004°00'0 0.0
2014-Dec-03 20:31N 51°28' E 004°00'0 0.0
2014-Dec-03 19:31N 51°28' E 004°00'0 0.0
2014-Dec-03 18:31N 51°28' E 004°00'0 0.0
2014-Dec-03 17:31N 51°28' E 004°00'0 0.0
2014-Dec-03 16:31N 51°28' E 004°00'0 0.0
2014-Dec-03 15:28N 51°28' E 004°00'0 0.0
2014-Dec-03 14:31N 51°28' E 004°00'0 0.0
2014-Dec-03 13:31N 51°28' E 004°00'0 0.0
2014-Dec-03 12:31N 51°28' E 004°00'0 0.0
2014-Dec-03 11:31N 51°28' E 004°00'0 0.0
2014-Dec-03 10:31N 51°28' E 004°00'0 0.0
2014-Dec-03 09:31N 51°28' E 004°00'0 0.0
2014-Dec-03 08:31N 51°28' E 004°00'0 0.0
2014-Dec-03 07:31N 51°28' E 004°00'0 0.0
2014-Dec-03 06:31N 51°28' E 004°00'0 0.0
2014-Dec-03 05:31N 51°28' E 004°00'0 0.0
2014-Dec-03 04:31N 51°28' E 004°00'0 0.0
2014-Dec-03 03:31N 51°28' E 004°00'0 0.0
2014-Dec-03 02:31N 51°28' E 004°00'0 0.0
2014-Dec-03 01:31N 51°28' E 004°00'0 0.0
2014-Dec-03 00:31N 51°28' E 004°00'0 0.0
2014-Dec-02 23:31N 51°28' E 004°00'0 0.0
2014-Dec-02 22:31N 51°28' E 004°00'0 0.0
2014-Dec-02 21:31N 51°28' E 004°00'0 0.0
2014-Dec-02 20:31N 51°28' E 004°00'0 0.0
2014-Dec-02 19:31N 51°28' E 004°00'0 0.0
2014-Dec-02 18:31N 51°28' E 004°00'0 0.0
2014-Dec-02 17:31N 51°28' E 004°00'0 0.0
2014-Dec-02 16:31N 51°28' E 004°00'0 0.0
2014-Dec-02 15:31N 51°28' E 004°00'0 0.0
2014-Dec-02 14:31N 51°28' E 004°00'0 0.0
2014-Dec-02 13:31N 51°28' E 004°00'0 0.0
2014-Dec-02 12:31N 51°28' E 004°00'0 0.0
2014-Dec-02 11:34N 51°28' E 004°00'0 0.0
2014-Dec-02 10:31N 51°28' E 004°00'0 0.0
2014-Dec-02 09:31N 51°28' E 004°00'0 0.0
2014-Dec-02 08:34N 51°28' E 004°00'0 0.0
2014-Dec-02 07:28N 51°28' E 004°00'0 0.0
2014-Dec-02 06:31N 51°28' E 004°00'0 0.0
2014-Dec-02 05:31N 51°28' E 004°00'0 0.0
2014-Dec-02 04:34N 51°28' E 004°00'0 0.0
2014-Dec-02 03:31N 51°28' E 004°00'0 0.0
2014-Dec-02 02:34N 51°28' E 004°00'0 0.0
2014-Dec-02 01:31N 51°28' E 004°00'0 0.0
2014-Dec-02 00:33N 51°28' E 004°00'0 0.0
2014-Dec-01 23:31N 51°28' E 004°00'0 0.0
2014-Dec-01 22:34N 51°28' E 004°00'0 0.0
2014-Dec-01 21:31N 51°28' E 004°00'0 0.0
2014-Dec-01 20:30N 51°28' E 004°00'0 0.0
2014-Dec-01 19:34N 51°28' E 004°00'0 0.0
2014-Dec-01 18:30N 51°28' E 004°00'0 0.0
2014-Dec-01 17:34N 51°28' E 004°00'0 0.0
2014-Dec-01 16:31N 51°28' E 004°00'0 0.0
2014-Dec-01 15:34N 51°28' E 004°00'0 0.0
2014-Dec-01 14:33N 51°28' E 004°00'0 0.0
2014-Dec-01 13:33N 51°28' E 004°00'0 0.0
2014-Dec-01 12:31N 51°28' E 004°00'0 0.0
2014-Dec-01 11:33N 51°28' E 004°00'0 0.0
2014-Dec-01 10:33N 51°28' E 004°00'0 0.0
2014-Dec-01 09:33N 51°28' E 004°00'0 0.0
2014-Dec-01 08:33N 51°28' E 004°00'0 0.0
2014-Dec-01 07:33N 51°28' E 004°00'0 0.2
2014-Dec-01 06:33N 51°27' E 004°01'8 7.6
2014-Dec-01 05:33N 51°21' E 003°53'3 3.0
2014-Dec-01 04:34N 51°20' E 003°49'0 0.0
2014-Dec-01 03:33N 51°20' E 003°49'0 0.0
2014-Dec-01 02:33N 51°20' E 003°49'0 0.0
2014-Dec-01 01:33N 51°20' E 003°49'0 0.0
2014-Dec-01 00:33N 51°20' E 003°49'0 0.0
2014-Nov-30 23:33N 51°20' E 003°49'0 0.0
2014-Nov-30 22:34N 51°20' E 003°49'0 0.0
2014-Nov-30 21:34N 51°20' E 003°49'0 0.0
2014-Nov-30 20:33N 51°20' E 003°49'0 0.0
2014-Nov-30 19:34N 51°20' E 003°49'0 0.0
2014-Nov-30 18:34N 51°20' E 003°49'0 0.0
2014-Nov-30 17:33N 51°20' E 003°49'0 0.0
2014-Nov-30 16:34N 51°20' E 003°49'0 0.0
2014-Nov-30 15:34N 51°20' E 003°49'0 0.0
2014-Nov-30 14:33N 51°20' E 003°49'0 0.0
2014-Nov-30 13:33N 51°20' E 003°49'0 0.0
2014-Nov-30 12:33N 51°20' E 003°49'0 0.0
2014-Nov-30 11:34N 51°20' E 003°49'0 0.0
2014-Nov-30 10:33N 51°20' E 003°49'0 0.0
2014-Nov-30 09:34N 51°20' E 003°49'0 0.0
2014-Nov-30 08:33N 51°20' E 003°49'0 0.0
2014-Nov-30 07:33N 51°20' E 003°49'0 0.0
2014-Nov-30 06:34N 51°20' E 003°49'0 0.0
2014-Nov-30 05:34N 51°20' E 003°49'0 0.0
2014-Nov-30 04:33N 51°20' E 003°49'0 0.0
2014-Nov-30 03:33N 51°20' E 003°49'0 0.0
2014-Nov-30 02:34N 51°20' E 003°49'0 0.0
2014-Nov-30 01:33N 51°20' E 003°49'0 0.0
2014-Nov-30 00:34N 51°20' E 003°49'0 0.0
2014-Nov-29 23:34N 51°20' E 003°49'0 0.0
2014-Nov-29 22:34N 51°20' E 003°49'0 0.0
2014-Nov-29 21:34N 51°20' E 003°49'0 0.0
2014-Nov-29 20:33N 51°20' E 003°49'0 0.0
2014-Nov-29 19:34N 51°20' E 003°49'0 0.0
2014-Nov-29 18:33N 51°20' E 003°49'0 0.0
2014-Nov-29 17:34N 51°20' E 003°49'0 0.0
2014-Nov-29 16:33N 51°20' E 003°49'0 0.0
2014-Nov-29 15:34N 51°20' E 003°49'0 0.0
2014-Nov-29 14:34N 51°20' E 003°49'0 0.0
2014-Nov-29 13:33N 51°20' E 003°49'0 0.0
2014-Nov-29 12:33N 51°20' E 003°49'0 0.0
2014-Nov-29 11:34N 51°20' E 003°49'0 0.0
2014-Nov-29 10:33N 51°20' E 003°49'0 0.0
2014-Nov-29 09:34N 51°20' E 003°49'0 0.0
2014-Nov-29 08:33N 51°20' E 003°49'0 0.0
2014-Nov-29 07:34N 51°20' E 003°49'0 0.0
2014-Nov-29 06:33N 51°20' E 003°49'0 0.0
2014-Nov-29 05:33N 51°20' E 003°49'0 0.0
2014-Nov-29 04:34N 51°20' E 003°49'0 0.0
2014-Nov-29 03:34N 51°20' E 003°49'0 0.0
2014-Nov-29 02:33N 51°20' E 003°49'0 0.0
2014-Nov-29 01:34N 51°20' E 003°49'0 0.0
2014-Nov-29 00:34N 51°20' E 003°49'0 0.0
2014-Nov-28 23:33N 51°20' E 003°49'0 0.0
2014-Nov-28 22:33N 51°20' E 003°49'2 1.6
2014-Nov-28 21:33N 51°21' E 003°47'1 1.2
2014-Nov-28 20:33N 51°22' E 003°45'1 1.0
2014-Nov-28 19:34N 51°21' E 003°46'2 1.9
2014-Nov-28 18:34N 51°20' E 003°49'0 0.0
2014-Nov-28 17:33N 51°20' E 003°49'0 0.0
2014-Nov-28 16:33N 51°20' E 003°49'0 0.0
2014-Nov-28 15:34N 51°20' E 003°49'0 0.0
2014-Nov-28 14:33N 51°20' E 003°49'0 0.0
2014-Nov-28 13:33N 51°20' E 003°49'1 0.6
2014-Nov-28 12:33N 51°20' E 003°49'3 3.1
2014-Nov-28 11:33N 51°17' E 003°50'5 5.3
2014-Nov-28 10:33N 51°12' E 003°48'6 6.1
2014-Nov-28 09:33N 51°06' E 003°45'0 0.4
2014-Nov-28 08:33N 51°05' E 003°45'0 0.1
2014-Nov-28 07:33N 51°06' E 003°45'0 0.0
2014-Nov-28 06:33N 51°06' E 003°45'0 0.0
2014-Nov-28 05:33N 51°06' E 003°45'0 0.0
2014-Nov-28 04:33N 51°06' E 003°45'0 0.0
2014-Nov-28 03:33N 51°06' E 003°45'0 0.0
2014-Nov-28 02:33N 51°06' E 003°45'0 0.0
2014-Nov-28 01:33N 51°06' E 003°45'0 0.0
2014-Nov-28 00:33N 51°06' E 003°45'0 0.0
2014-Nov-27 23:33N 51°06' E 003°45'  

Dump ship's entire track history